createdAt,value
2022-10-19T00:02:06.955Z,100.00
2022-10-19T00:04:33.496Z,100.00
2022-10-19T00:06:59.981Z,100.00
2022-10-19T00:09:26.500Z,100.00
2022-10-19T00:11:52.985Z,100.00
2022-10-19T00:14:23.152Z,100.00
2022-10-19T00:16:51.594Z,100.00
2022-10-19T00:19:21.905Z,100.00
2022-10-19T00:24:20.252Z,100.00
2022-10-19T00:26:46.784Z,100.00
2022-10-19T00:29:14.609Z,100.00
2022-10-19T00:31:41.429Z,100.00
2022-10-19T00:34:07.983Z,100.00
2022-10-19T00:36:37.781Z,100.00
2022-10-19T00:39:06.175Z,100.00
2022-10-19T00:41:34.735Z,100.00
2022-10-19T00:44:03.002Z,100.00
2022-10-19T00:46:32.634Z,100.00
2022-10-19T00:49:10.833Z,100.00
2022-10-19T00:51:40.983Z,100.00
2022-10-19T00:54:08.877Z,100.00
2022-10-19T00:56:39.754Z,100.00
2022-10-19T00:59:07.977Z,100.00
2022-10-19T01:01:34.983Z,100.00
2022-10-19T01:04:03.013Z,100.00
2022-10-19T01:06:30.105Z,100.00
2022-10-19T01:08:56.636Z,100.00
2022-10-19T01:11:34.932Z,100.00
2022-10-19T01:14:26.720Z,100.00
2022-10-19T01:17:22.288Z,100.00
2022-10-19T01:20:07.794Z,100.00
2022-10-19T01:22:40.119Z,100.00
2022-10-19T01:25:21.787Z,100.00
2022-10-19T01:27:51.247Z,100.00
2022-10-19T01:30:31.815Z,100.00
2022-10-19T01:33:04.337Z,100.00
2022-10-19T01:35:42.474Z,100.00
2022-10-19T01:38:24.732Z,100.00
2022-10-19T01:41:01.644Z,100.00
2022-10-19T01:43:40.652Z,100.00
2022-10-19T01:46:14.490Z,100.00
2022-10-19T01:48:47.325Z,100.00
2022-10-19T01:51:21.673Z,100.00
2022-10-19T01:53:52.356Z,100.00
2022-10-19T01:56:22.221Z,100.00
2022-10-19T01:58:51.474Z,100.00
2022-10-19T02:01:21.501Z,100.00
2022-10-19T02:03:48.861Z,100.00
2022-10-19T02:06:15.538Z,100.00
2022-10-19T02:08:48.676Z,100.00
2022-10-19T02:11:17.060Z,100.00
2022-10-19T02:13:45.076Z,100.00
2022-10-19T02:16:27.833Z,100.00
2022-10-19T02:18:55.836Z,100.00
2022-10-19T02:21:22.530Z,100.00
2022-10-19T02:23:51.801Z,100.00
2022-10-19T02:26:21.355Z,100.00
2022-10-19T02:28:49.607Z,100.00
2022-10-19T02:31:16.567Z,100.00
2022-10-19T02:33:43.252Z,100.00
2022-10-19T02:36:09.795Z,100.00
2022-10-19T02:38:36.501Z,100.00
2022-10-19T02:41:18.114Z,100.00
2022-10-19T02:43:49.351Z,100.00
2022-10-19T02:46:28.801Z,100.00
2022-10-19T02:48:57.111Z,100.00
2022-10-19T02:51:27.648Z,100.00
2022-10-19T02:53:54.136Z,100.00
2022-10-19T02:56:21.042Z,100.00
2022-10-19T02:58:47.456Z,100.00
2022-10-19T03:01:14.653Z,100.00
2022-10-19T03:03:41.190Z,100.00
2022-10-19T03:06:07.644Z,100.00
2022-10-19T03:08:34.093Z,100.00
2022-10-19T03:11:00.674Z,100.00
2022-10-19T03:13:27.378Z,100.00
2022-10-19T03:15:53.846Z,100.00
2022-10-19T03:18:20.281Z,100.00
2022-10-19T03:20:46.739Z,100.00
2022-10-19T03:23:13.174Z,100.00
2022-10-19T03:25:39.582Z,100.00
2022-10-19T03:28:06.057Z,100.00
2022-10-19T03:30:32.474Z,100.00
2022-10-19T03:32:58.936Z,100.00
2022-10-19T03:35:25.379Z,100.00
2022-10-19T03:37:51.807Z,100.00
2022-10-19T03:40:18.270Z,100.00
2022-10-19T03:42:44.792Z,100.00
2022-10-19T03:45:11.326Z,100.00
2022-10-19T03:47:37.751Z,100.00
2022-10-19T03:50:05.972Z,100.00
2022-10-19T03:52:32.407Z,100.00
2022-10-19T03:54:58.835Z,100.00
2022-10-19T03:57:25.287Z,100.00
2022-10-19T03:59:51.697Z,100.00
2022-10-19T04:02:18.119Z,100.00
2022-10-19T04:04:44.520Z,100.00
2022-10-19T04:07:11.060Z,100.00
2022-10-19T04:09:37.501Z,100.00
2022-10-19T04:12:04.125Z,100.00
2022-10-19T04:14:33.266Z,100.00
2022-10-19T04:17:05.522Z,100.00
2022-10-19T04:19:31.969Z,100.00
2022-10-19T04:21:59.149Z,100.00
2022-10-19T04:24:25.558Z,100.00
2022-10-19T04:26:54.299Z,100.00
2022-10-19T04:29:27.890Z,100.00
2022-10-19T04:31:56.477Z,100.00
2022-10-19T04:34:23.120Z,100.00
2022-10-19T04:36:49.612Z,100.00
2022-10-19T04:39:16.182Z,100.00
2022-10-19T04:41:42.644Z,100.00
2022-10-19T04:44:09.706Z,100.00
2022-10-19T04:46:37.319Z,100.00
2022-10-19T04:49:05.620Z,100.00
2022-10-19T04:51:32.119Z,100.00
2022-10-19T04:53:59.777Z,100.00
2022-10-19T04:56:27.633Z,100.00
2022-10-19T04:58:58.904Z,100.00
2022-10-19T05:01:26.714Z,100.00
2022-10-19T05:06:26.790Z,100.00
2022-10-19T05:08:53.599Z,100.00
2022-10-19T05:11:20.791Z,100.00
2022-10-19T05:13:48.174Z,100.00
2022-10-19T05:16:18.251Z,100.00
2022-10-19T05:18:49.319Z,100.00
2022-10-19T05:21:16.567Z,100.00
2022-10-19T05:23:43.342Z,100.00
2022-10-19T05:26:12.586Z,100.00
2022-10-19T05:28:39.194Z,100.00
2022-10-19T05:31:25.741Z,100.00
2022-10-19T05:33:52.234Z,100.00
2022-10-19T05:36:27.556Z,100.00
2022-10-19T05:38:56.521Z,100.00
2022-10-19T05:41:24.649Z,100.00
2022-10-19T05:43:56.560Z,100.00
2022-10-19T05:46:23.460Z,100.00
2022-10-19T05:48:49.902Z,100.00
2022-10-19T05:51:20.098Z,100.00
2022-10-19T05:53:46.902Z,100.00
2022-10-19T05:56:16.748Z,100.00
2022-10-19T05:58:43.458Z,100.00
2022-10-19T06:01:10.769Z,100.00
2022-10-19T06:03:37.218Z,100.00
2022-10-19T06:06:04.928Z,100.00
2022-10-19T06:08:31.499Z,100.00
2022-10-19T06:11:18.903Z,100.00
2022-10-19T06:13:47.429Z,100.00
2022-10-19T06:16:15.543Z,100.00
2022-10-19T06:18:42.829Z,100.00
2022-10-19T06:21:16.818Z,100.00
2022-10-19T06:23:43.365Z,100.00
2022-10-19T06:26:12.379Z,100.00
2022-10-19T06:28:40.692Z,100.00
2022-10-19T06:31:09.336Z,100.00
2022-10-19T06:33:36.625Z,100.00
2022-10-19T06:36:15.703Z,100.00
2022-10-19T06:38:42.784Z,100.00
2022-10-19T06:41:10.555Z,100.00
2022-10-19T06:43:37.144Z,100.00
2022-10-19T06:46:05.552Z,100.00
2022-10-19T06:48:32.082Z,100.00
2022-10-19T06:51:00.528Z,100.00
2022-10-19T06:53:29.089Z,100.00
2022-10-19T06:55:59.634Z,100.00
2022-10-19T06:58:26.353Z,100.00
2022-10-19T07:00:57.529Z,100.00
2022-10-19T07:03:25.233Z,100.00
2022-10-19T07:05:54.819Z,100.00
2022-10-19T07:08:21.513Z,100.00
2022-10-19T07:10:56.742Z,100.00
2022-10-19T07:13:24.366Z,100.00
2022-10-19T07:15:57.211Z,100.00
2022-10-19T07:18:23.723Z,100.00
2022-10-19T07:20:58.095Z,100.00
2022-10-19T07:23:26.953Z,100.00
2022-10-19T07:25:59.896Z,100.00
2022-10-19T07:28:26.654Z,100.00
2022-10-19T07:30:53.106Z,100.00
2022-10-19T07:33:19.570Z,100.00
2022-10-19T07:35:46.016Z,100.00
2022-10-19T07:38:12.464Z,100.00
2022-10-19T07:40:40.037Z,100.00
2022-10-19T07:43:08.893Z,100.00
2022-10-19T07:45:35.391Z,100.00
2022-10-19T07:48:01.835Z,100.00
2022-10-19T07:50:28.387Z,100.00
2022-10-19T07:52:55.374Z,100.00
2022-10-19T07:55:21.902Z,100.00
2022-10-19T07:57:49.886Z,100.00
2022-10-19T08:00:17.010Z,100.00
2022-10-19T08:02:59.691Z,100.00
2022-10-19T08:05:33.104Z,100.00
2022-10-19T08:07:59.571Z,100.00
2022-10-19T08:10:26.089Z,100.00
2022-10-19T08:12:52.635Z,100.00
2022-10-19T08:15:19.167Z,100.00
2022-10-19T08:17:45.610Z,100.00
2022-10-19T08:20:12.065Z,100.00
2022-10-19T08:22:38.503Z,100.00
2022-10-19T08:25:05.479Z,100.00
2022-10-19T08:27:31.983Z,100.00
2022-10-19T08:29:58.478Z,100.00
2022-10-19T08:32:25.009Z,100.00
2022-10-19T08:34:51.447Z,100.00
2022-10-19T08:37:26.276Z,100.00
2022-10-19T08:40:05.184Z,100.00
2022-10-19T08:42:47.809Z,100.00
2022-10-19T08:45:27.429Z,100.00
2022-10-19T08:48:03.011Z,100.00
2022-10-19T08:50:39.475Z,100.00
2022-10-19T08:53:44.911Z,100.00
2022-10-19T08:56:49.458Z,100.00
2022-10-19T08:59:30.464Z,100.00
2022-10-19T09:02:09.020Z,100.00
2022-10-19T09:04:40.218Z,100.00
2022-10-19T09:07:09.768Z,100.00
2022-10-19T09:09:42.485Z,100.00
2022-10-19T09:12:16.295Z,100.00
2022-10-19T09:14:51.590Z,100.00
2022-10-19T09:17:18.229Z,100.00
2022-10-19T09:19:44.667Z,100.00
2022-10-19T09:22:25.480Z,100.00
2022-10-19T09:25:00.797Z,100.00
2022-10-19T09:27:36.158Z,100.00
2022-10-19T09:30:07.119Z,100.00
2022-10-19T09:32:40.054Z,100.00
2022-10-19T09:35:37.470Z,100.00
2022-10-19T09:38:06.804Z,100.00
2022-10-19T09:40:35.041Z,100.00
2022-10-19T09:43:13.315Z,100.00
2022-10-19T09:45:47.696Z,100.00
2022-10-19T09:48:36.554Z,100.00
2022-10-19T09:51:10.671Z,100.00
2022-10-19T09:53:37.432Z,100.00
2022-10-19T09:56:07.771Z,100.00
2022-10-19T09:58:35.491Z,100.00
2022-10-19T10:01:03.112Z,100.00
2022-10-19T10:03:40.347Z,100.00
2022-10-19T10:06:13.638Z,100.00
2022-10-19T10:08:47.711Z,100.00
2022-10-19T10:11:22.864Z,100.00
2022-10-19T10:13:54.145Z,100.00
2022-10-19T10:16:23.777Z,100.00
2022-10-19T10:18:53.237Z,100.00
2022-10-19T10:21:33.649Z,100.00
2022-10-19T10:24:21.552Z,100.00
2022-10-19T10:26:51.745Z,100.00
2022-10-19T10:29:28.423Z,100.00
2022-10-19T10:31:56.237Z,100.00
2022-10-19T10:34:38.784Z,100.00
2022-10-19T10:37:34.954Z,100.00
2022-10-19T10:40:04.718Z,100.00
2022-10-19T10:42:44.225Z,100.00
2022-10-19T10:45:49.515Z,100.00
2022-10-19T10:48:25.038Z,100.00
2022-10-19T10:50:52.116Z,100.00
2022-10-19T10:53:43.756Z,100.00
2022-10-19T10:56:40.468Z,100.00
2022-10-19T10:59:23.253Z,100.00
2022-10-19T11:02:28.050Z,100.00
2022-10-19T11:05:08.088Z,100.00
2022-10-19T11:07:37.443Z,98.66
2022-10-19T11:10:20.196Z,97.83
2022-10-19T11:12:53.894Z,98.00
2022-10-19T11:18:19.074Z,97.74
2022-10-19T11:21:04.133Z,98.41
2022-10-19T11:23:44.354Z,98.80
2022-10-19T11:26:26.442Z,98.25
2022-10-19T11:29:30.409Z,99.69
2022-10-19T11:31:57.264Z,99.75
2022-10-19T11:34:53.596Z,100.00
2022-10-19T11:37:49.819Z,100.00
2022-10-19T11:40:32.028Z,100.00
2022-10-19T11:43:12.678Z,100.00
2022-10-19T11:45:45.381Z,100.00
2022-10-19T11:48:29.615Z,99.91
2022-10-19T11:51:21.058Z,100.00
2022-10-19T11:54:12.403Z,100.00
2022-10-19T11:57:20.749Z,100.00
2022-10-19T12:00:14.461Z,100.00
2022-10-19T12:06:34.345Z,98.73
2022-10-19T12:09:31.916Z,96.81
2022-10-19T12:12:27.781Z,96.84
2022-10-19T12:15:14.269Z,99.35
2022-10-19T12:17:44.854Z,99.37
2022-10-19T12:20:29.104Z,97.58
2022-10-19T12:22:58.880Z,99.72
2022-10-19T12:25:26.686Z,99.47
2022-10-19T12:27:54.181Z,98.81
2022-10-19T12:30:22.752Z,99.75
2022-10-19T12:32:54.429Z,100.00
2022-10-19T12:35:29.616Z,100.00
2022-10-19T12:38:24.846Z,99.36
2022-10-19T12:40:54.592Z,99.05
2022-10-19T12:43:45.177Z,95.98
2022-10-19T12:46:26.298Z,94.07
2022-10-19T12:49:31.428Z,95.74
2022-10-19T12:52:00.108Z,95.53
2022-10-19T12:54:32.964Z,93.58
2022-10-19T12:57:01.953Z,91.47
2022-10-19T12:59:34.989Z,93.61
2022-10-19T13:02:05.192Z,92.88
2022-10-19T13:04:37.913Z,94.51
2022-10-19T13:07:10.980Z,94.09
2022-10-19T13:09:42.817Z,92.10
2022-10-19T13:12:19.560Z,90.90
2022-10-19T13:14:59.593Z,89.33
2022-10-19T13:17:38.074Z,89.34
2022-10-19T13:20:13.956Z,89.37
2022-10-19T13:22:52.128Z,90.95
2022-10-19T13:25:37.779Z,88.15
2022-10-19T13:28:07.414Z,87.33
2022-10-19T13:30:40.773Z,88.90
2022-10-19T13:33:25.659Z,85.55
2022-10-19T13:36:02.482Z,84.35
2022-10-19T13:38:29.204Z,86.52
2022-10-19T13:41:01.009Z,87.09
2022-10-19T13:43:32.064Z,85.08
2022-10-19T13:46:12.582Z,84.02
2022-10-19T13:48:48.815Z,86.22
2022-10-19T13:51:28.771Z,86.74
2022-10-19T13:54:24.179Z,84.90
2022-10-19T13:57:29.004Z,86.89
2022-10-19T14:00:14.270Z,87.35
2022-10-19T14:02:50.971Z,89.26
2022-10-19T14:06:07.854Z,87.04
2022-10-19T14:09:04.890Z,88.37
2022-10-19T14:11:36.405Z,87.22
2022-10-19T14:14:12.876Z,89.03
2022-10-19T14:17:03.789Z,88.29
2022-10-19T14:19:43.543Z,86.13
2022-10-19T14:22:36.266Z,86.43
2022-10-19T14:25:19.588Z,87.60
2022-10-19T14:27:47.420Z,88.34
2022-10-19T14:30:37.233Z,87.68
2022-10-19T14:33:10.347Z,88.60
2022-10-19T14:35:39.645Z,87.71
2022-10-19T14:38:08.647Z,87.01
2022-10-19T14:40:40.173Z,88.38
2022-10-19T14:43:25.415Z,89.66
2022-10-19T14:46:07.141Z,91.44
2022-10-19T14:48:39.827Z,90.71
2022-10-19T14:51:18.507Z,90.68
2022-10-19T14:53:47.943Z,90.24
2022-10-19T14:56:18.977Z,90.04
2022-10-19T14:58:52.695Z,90.11
2022-10-19T15:01:20.325Z,88.80
2022-10-19T15:03:49.049Z,89.24
2022-10-19T15:06:22.146Z,89.71
2022-10-19T15:08:55.470Z,90.32
2022-10-19T15:11:31.029Z,91.45
2022-10-19T15:14:02.639Z,91.55
2022-10-19T15:16:42.580Z,92.44
2022-10-19T15:19:23.310Z,93.52
2022-10-19T15:22:17.167Z,94.30
2022-10-19T15:25:00.419Z,93.93
2022-10-19T15:27:47.196Z,93.99
2022-10-19T15:30:21.160Z,95.33
2022-10-19T15:32:51.195Z,96.05
2022-10-19T15:35:29.202Z,96.08
2022-10-19T15:38:23.316Z,97.12
2022-10-19T15:40:58.524Z,96.25
2022-10-19T15:43:30.766Z,97.43
2022-10-19T15:46:06.262Z,98.53
2022-10-19T15:48:41.822Z,98.48
2022-10-19T15:51:28.622Z,98.66
2022-10-19T15:54:00.459Z,99.54
2022-10-19T15:56:28.360Z,100.00
2022-10-19T15:58:57.317Z,100.00
2022-10-19T16:01:26.828Z,100.00
2022-10-19T16:03:54.193Z,100.00
2022-10-19T16:06:23.387Z,100.00
2022-10-19T16:08:54.207Z,100.00
2022-10-19T16:11:22.988Z,100.00
2022-10-19T16:13:49.970Z,100.00
2022-10-19T16:16:26.250Z,100.00
2022-10-19T16:18:53.899Z,100.00
2022-10-19T16:21:23.725Z,100.00
2022-10-19T16:23:50.283Z,100.00
2022-10-19T16:26:17.575Z,100.00
2022-10-19T16:28:44.730Z,100.00
2022-10-19T16:31:11.486Z,100.00
2022-10-19T16:33:38.004Z,100.00
2022-10-19T16:36:07.339Z,100.00
2022-10-19T16:38:34.885Z,100.00
2022-10-19T16:41:08.566Z,100.00
2022-10-19T16:43:35.767Z,100.00
2022-10-19T16:46:03.279Z,100.00
2022-10-19T16:48:30.129Z,100.00
2022-10-19T16:51:05.794Z,100.00
2022-10-19T16:53:32.924Z,100.00
2022-10-19T16:56:12.370Z,100.00
2022-10-19T16:58:39.992Z,100.00
2022-10-19T17:01:13.034Z,100.00
2022-10-19T17:03:39.688Z,100.00
2022-10-19T17:06:07.709Z,100.00
2022-10-19T17:08:44.239Z,100.00
2022-10-19T17:11:28.186Z,100.00
2022-10-19T17:13:57.645Z,100.00
2022-10-19T17:16:25.190Z,100.00
2022-10-19T17:18:54.972Z,100.00
2022-10-19T17:21:24.023Z,100.00
2022-10-19T17:23:55.755Z,100.00
2022-10-19T17:26:27.627Z,100.00
2022-10-19T17:28:55.151Z,100.00
2022-10-19T17:31:22.203Z,100.00
2022-10-19T17:33:51.723Z,100.00
2022-10-19T17:36:23.185Z,100.00
2022-10-19T17:38:49.662Z,100.00
2022-10-19T17:41:18.146Z,100.00
2022-10-19T17:43:46.515Z,100.00
2022-10-19T17:46:16.315Z,100.00
2022-10-19T17:48:44.481Z,100.00
2022-10-19T17:51:16.241Z,100.00
2022-10-19T17:53:44.964Z,100.00
2022-10-19T17:56:13.659Z,100.00
2022-10-19T17:58:40.910Z,100.00
2022-10-19T18:01:09.192Z,100.00
2022-10-19T18:03:37.944Z,100.00
2022-10-19T18:06:32.081Z,100.00
2022-10-19T18:09:00.513Z,100.00
2022-10-19T18:11:30.400Z,100.00
2022-10-19T18:14:01.079Z,100.00
2022-10-19T18:16:47.071Z,100.00
2022-10-19T18:19:15.608Z,100.00
2022-10-19T18:21:43.648Z,100.00
2022-10-19T18:24:20.161Z,100.00
2022-10-19T18:26:48.722Z,100.00
2022-10-19T18:29:19.622Z,100.00
2022-10-19T18:31:51.435Z,100.00
2022-10-19T18:37:39.756Z,100.00
2022-10-19T18:40:06.750Z,100.00
2022-10-19T18:42:33.549Z,100.00
2022-10-19T18:45:00.192Z,100.00
2022-10-19T18:47:26.625Z,100.00
2022-10-19T18:49:54.593Z,100.00
2022-10-19T18:52:21.032Z,100.00
2022-10-19T18:54:47.615Z,100.00
2022-10-19T18:57:14.072Z,100.00
2022-10-19T18:59:40.539Z,100.00
2022-10-19T19:02:13.592Z,100.00
2022-10-19T19:04:48.909Z,100.00
2022-10-19T19:07:15.372Z,100.00
2022-10-19T19:09:42.699Z,100.00
2022-10-19T19:12:09.584Z,100.00
2022-10-19T19:14:38.073Z,100.00
2022-10-19T19:17:04.593Z,100.00
2022-10-19T19:19:31.082Z,100.00
2022-10-19T19:21:58.153Z,100.00
2022-10-19T19:24:28.223Z,100.00
2022-10-19T19:26:55.063Z,100.00
2022-10-19T19:29:22.094Z,100.00
2022-10-19T19:31:49.001Z,100.00
2022-10-19T19:34:15.582Z,100.00
2022-10-19T19:36:47.201Z,100.00
2022-10-19T19:39:16.225Z,100.00
2022-10-19T19:41:42.759Z,100.00
2022-10-19T19:44:09.330Z,100.00
2022-10-19T19:46:36.117Z,100.00
2022-10-19T19:49:04.276Z,100.00
2022-10-19T19:51:32.218Z,100.00
2022-10-19T19:53:58.886Z,100.00
2022-10-19T19:56:25.699Z,100.00
2022-10-19T19:59:00.446Z,100.00
2022-10-19T20:01:27.078Z,100.00
2022-10-19T20:03:53.652Z,100.00
2022-10-19T20:06:23.596Z,100.00
2022-10-19T20:08:52.486Z,100.00
2022-10-19T20:11:19.237Z,100.00
2022-10-19T20:13:45.902Z,100.00
2022-10-19T20:16:15.657Z,100.00
2022-10-19T20:18:45.281Z,100.00
2022-10-19T20:21:12.662Z,100.00
2022-10-19T20:23:39.212Z,100.00
2022-10-19T20:26:05.901Z,100.00
2022-10-19T20:28:33.116Z,100.00
2022-10-19T20:31:05.774Z,100.00
2022-10-19T20:33:34.597Z,100.00
2022-10-19T20:36:11.817Z,100.00
2022-10-19T20:38:39.313Z,100.00
2022-10-19T20:41:08.419Z,100.00
2022-10-19T20:43:37.039Z,100.00
2022-10-19T20:46:11.031Z,100.00
2022-10-19T20:48:37.818Z,100.00
2022-10-19T20:51:09.456Z,100.00
2022-10-19T20:53:35.970Z,100.00
2022-10-19T20:56:05.314Z,100.00
2022-10-19T20:58:31.889Z,100.00
2022-10-19T21:01:15.003Z,100.00
2022-10-19T21:03:50.771Z,100.00
2022-10-19T21:06:17.306Z,100.00
2022-10-19T21:08:43.818Z,100.00
2022-10-19T21:11:19.030Z,100.00
2022-10-19T21:13:46.333Z,100.00
2022-10-19T21:16:16.870Z,100.00
2022-10-19T21:18:44.415Z,100.00
2022-10-19T21:21:23.987Z,100.00
2022-10-19T21:23:55.466Z,100.00
2022-10-19T21:26:25.327Z,100.00
2022-10-19T21:28:55.171Z,100.00
2022-10-19T21:31:24.078Z,100.00
2022-10-19T21:33:51.693Z,100.00
2022-10-19T21:36:19.537Z,100.00
2022-10-19T21:38:46.011Z,100.00
2022-10-19T21:41:14.747Z,100.00
2022-10-19T21:43:41.664Z,100.00
2022-10-19T21:46:11.979Z,100.00
2022-10-19T21:48:38.844Z,100.00
2022-10-19T21:51:35.986Z,100.00
2022-10-19T21:54:05.032Z,100.00
2022-10-19T21:56:32.260Z,100.00
2022-10-19T21:58:58.808Z,100.00
2022-10-19T22:01:27.895Z,100.00
2022-10-19T22:03:59.225Z,100.00
2022-10-19T22:06:27.692Z,100.00
2022-10-19T22:08:55.393Z,100.00
2022-10-19T22:11:22.384Z,100.00
2022-10-19T22:13:48.908Z,100.00
2022-10-19T22:16:18.925Z,100.00
2022-10-19T22:18:46.506Z,100.00
2022-10-19T22:21:16.486Z,100.00
2022-10-19T22:23:43.153Z,100.00
2022-10-19T22:26:13.897Z,100.00
2022-10-19T22:28:40.589Z,100.00
2022-10-19T22:31:07.207Z,100.00
2022-10-19T22:33:35.083Z,100.00
2022-10-19T22:36:04.145Z,100.00
2022-10-19T22:38:30.965Z,100.00
2022-10-19T22:40:57.391Z,100.00
2022-10-19T22:43:23.872Z,100.00
2022-10-19T22:45:50.781Z,100.00
2022-10-19T22:48:18.152Z,100.00
2022-10-19T22:50:45.385Z,100.00
2022-10-19T22:53:12.339Z,100.00
2022-10-19T22:55:39.512Z,100.00
2022-10-19T22:58:07.575Z,100.00
2022-10-19T23:00:34.027Z,100.00
2022-10-19T23:03:00.503Z,100.00
2022-10-19T23:05:26.968Z,100.00
2022-10-19T23:07:53.416Z,100.00
2022-10-19T23:10:19.897Z,100.00
2022-10-19T23:12:54.014Z,100.00
2022-10-19T23:15:21.617Z,100.00
2022-10-19T23:17:48.318Z,100.00
2022-10-19T23:20:14.849Z,100.00
2022-10-19T23:22:41.313Z,100.00
2022-10-19T23:25:08.510Z,100.00
2022-10-19T23:27:35.291Z,100.00
2022-10-19T23:30:02.667Z,100.00
2022-10-19T23:32:29.214Z,100.00
2022-10-19T23:34:55.715Z,100.00
2022-10-19T23:37:22.199Z,100.00
2022-10-19T23:39:48.695Z,100.00
2022-10-19T23:42:15.113Z,100.00
2022-10-19T23:44:41.649Z,100.00
2022-10-19T23:47:08.098Z,100.00
2022-10-19T23:49:34.670Z,100.00
2022-10-19T23:52:01.116Z,100.00
2022-10-19T23:54:27.559Z,100.00
2022-10-19T23:56:54.021Z,100.00
2022-10-19T23:59:20.523Z,100.00
